Elk Grove Village, Illinois
Current Conditions -  °F | °C
As of 6:51 AM on Friday 26 Dec 2014 (Local Time) from KORD Reporting Station
Scattered Clouds Scattered Clouds  
Wind Chill: 30°   Ceiling: Unl
Heat Index: 37°   Visibility: 10mi
Dew Point: 32°   Wind: 10mph
Humidity: 82%   Direction: 210°SSW
Pressure: 29.99"   Gusts: NA
Location:  42°N, 88.01°W
Report Text: KORD 261251Z 21009KT 10SM SCT240 03/00 A2999 RMK AO2 SLP161 T00280000
Loading
Personal Weather Stations






























Interactive Weather Map New forecast layout! Learn more

10-Day Weather Forecast

Advertisements
Track Severe Weather on mobile